Time;durP1;ratioP1;P1;durP2;ratioP2;P2;SDS_P1;SDS_P2;PMS_P1;PMS_P2;Temp;Humidity;BMP_temperature;BMP_pressure;BME280_temperature;BME280_humidity;BME280_pressure;Samples;Min_cycle;Max_cycle;Signal;HPM_P1;HPM_P2
2021/07/20 00:00:25;;;;;;;20.30;18.30;;;21.30;99.90;;;;;;4956775;28;20230;-62
2021/07/20 00:02:53;;;;;;;19.73;17.73;;;21.40;99.90;;;;;;4958490;28;20233;-63
2021/07/20 00:05:23;;;;;;;21.03;18.03;;;21.40;99.90;;;;;;4956936;28;20523;-62
2021/07/20 00:07:53;;;;;;;20.43;18.43;;;21.50;99.90;;;;;;4958590;28;20904;-62
2021/07/20 00:10:27;;;;;;;17.97;16.17;;;21.60;99.90;;;;;;4927754;28;20967;-62
2021/07/20 00:12:53;;;;;;;20.37;17.70;;;21.40;99.90;;;;;;4949983;29;20460;-63
2021/07/20 00:15:19;;;;;;;18.97;16.63;;;21.50;99.90;;;;;;4958057;28;20461;-62
2021/07/20 00:17:48;;;;;;;20.13;17.10;;;21.50;99.90;;;;;;4958278;28;20853;-63
2021/07/20 00:20:16;;;;;;;20.97;16.63;;;21.50;99.90;;;;;;4958054;28;20870;-63
2021/07/20 00:22:44;;;;;;;18.07;16.23;;;21.50;99.90;;;;;;4958015;29;20460;-63
2021/07/20 00:25:11;;;;;;;18.30;16.40;;;21.60;99.90;;;;;;4957654;28;20452;-62
2021/07/20 00:27:37;;;;;;;18.67;16.73;;;21.60;99.90;;;;;;4957745;28;20456;-62
2021/07/20 00:30:04;;;;;;;20.67;16.50;;;21.50;99.90;;;;;;4957485;28;20770;-62
2021/07/20 00:32:30;;;;;;;20.97;16.73;;;21.50;99.90;;;;;;4957723;28;20184;-62
2021/07/20 00:34:55;;;;;;;17.80;15.90;;;21.60;99.90;;;;;;4957735;28;20504;-62
2021/07/20 00:37:21;;;;;;;17.97;16.07;;;21.50;99.90;;;;;;4957986;29;20166;-61
2021/07/20 00:39:46;;;;;;;20.13;16.97;;;21.40;99.90;;;;;;4956048;29;20560;-62
2021/07/20 00:42:13;;;;;;;20.23;18.27;;;21.30;99.90;;;;;;4954909;29;20217;-63
2021/07/20 00:44:39;;;;;;;19.30;17.10;;;21.10;99.90;;;;;;4940197;29;20305;-63
2021/07/20 00:47:04;;;;;;;20.23;18.00;;;21.00;99.90;;;;;;4958398;29;20493;-62
2021/07/20 00:49:30;;;;;;;19.20;17.13;;;20.70;99.90;;;;;;4956082;28;20767;-62
2021/07/20 00:51:55;;;;;;;19.83;17.83;;;20.30;99.90;;;;;;4955985;29;20701;-61
2021/07/20 00:54:21;;;;;;;18.30;16.33;;;20.30;99.90;;;;;;4957687;28;20246;-62
2021/07/20 00:56:47;;;;;;;20.37;18.10;;;20.20;99.90;;;;;;4957642;29;20177;-62
2021/07/20 00:59:13;;;;;;;21.37;17.70;;;20.20;99.90;;;;;;4957375;28;20167;-63
2021/07/20 01:01:39;;;;;;;21.47;17.73;;;20.00;99.90;;;;;;4957310;28;20241;-63
2021/07/20 01:04:05;;;;;;;18.20;16.30;;;19.90;99.90;;;;;;4955826;28;20448;-63
2021/07/20 01:06:32;;;;;;;20.30;18.07;;;19.90;99.90;;;;;;4957435;29;20413;-62
2021/07/20 01:09:02;;;;;;;21.20;18.90;;;19.60;99.90;;;;;;4957475;28;20532;-63
2021/07/20 01:11:29;;;;;;;20.20;16.90;;;19.50;99.90;;;;;;4955837;28;20825;-63
2021/07/20 01:13:56;;;;;;;19.20;17.17;;;19.60;99.90;;;;;;4957068;28;20430;-63
2021/07/20 01:16:24;;;;;;;18.67;16.67;;;19.60;99.90;;;;;;4957016;28;20401;-63
2021/07/20 01:18:50;;;;;;;22.40;18.43;;;19.50;99.90;;;;;;4955417;28;20418;-63
2021/07/20 01:21:16;;;;;;;19.70;17.17;;;19.50;99.90;;;;;;4957210;28;20471;-63
2021/07/20 01:23:44;;;;;;;21.67;18.60;;;19.60;99.90;;;;;;4956945;28;20517;-63
2021/07/20 01:26:10;;;;;;;18.77;16.93;;;19.50;99.90;;;;;;4955457;28;20461;-63
2021/07/20 01:28:38;;;;;;;20.73;17.93;;;19.50;99.90;;;;;;4956892;28;20449;-61
2021/07/20 01:31:15;;;;;;;19.50;16.43;;;19.30;99.90;;;;;;4956963;28;20186;-62
2021/07/20 01:33:45;;;;;;;25.37;18.47;;;19.30;99.90;;;;;;4955447;28;20480;-62
2021/07/20 01:36:11;;;;;;;21.13;18.60;;;19.20;99.90;;;;;;4956988;28;20751;-62
2021/07/20 01:38:38;;;;;;;21.03;18.60;;;19.20;99.90;;;;;;4956658;28;20417;-63
2021/07/20 01:41:09;;;;;;;21.30;17.53;;;19.30;99.90;;;;;;4956602;28;20912;-63
2021/07/20 01:43:37;;;;;;;20.80;17.90;;;19.40;99.90;;;;;;4956619;28;20457;-63
2021/07/20 01:46:04;;;;;;;19.50;17.37;;;19.30;99.90;;;;;;4954807;28;20422;-63
2021/07/20 01:48:35;;;;;;;23.30;18.60;;;19.30;99.90;;;;;;4956709;28;20509;-63
2021/07/20 01:51:02;;;;;;;21.40;18.20;;;19.30;99.90;;;;;;4956608;28;20806;-63
2021/07/20 01:53:30;;;;;;;20.87;18.77;;;19.10;99.90;;;;;;4954908;28;20442;-63
2021/07/20 01:55:56;;;;;;;20.83;18.73;;;19.00;99.90;;;;;;4956194;28;20397;-63
2021/07/20 01:58:21;;;;;;;20.30;18.10;;;18.90;99.90;;;;;;4957062;28;20776;-62
2021/07/20 02:00:48;;;;;;;19.87;17.83;;;18.70;99.90;;;;;;4954703;28;20424;-62
2021/07/20 02:08:39;;;;;;;19.57;17.37;;;18.70;99.90;;;;;;4956891;29;20381;-62
2021/07/20 02:11:09;;;;;;;22.07;18.17;;;18.80;99.90;;;;;;4955870;28;20450;-62
2021/07/20 02:13:44;;;;;;;21.07;18.77;;;18.80;99.90;;;;;;4956065;28;20847;-63
2021/07/20 02:16:13;;;;;;;23.10;20.70;;;18.90;99.90;;;;;;4954479;28;20413;-63
2021/07/20 02:18:44;;;;;;;24.83;19.30;;;18.60;99.90;;;;;;4956232;28;20513;-63
2021/07/20 02:21:10;;;;;;;19.07;17.07;;;18.40;99.90;;;;;;4955806;28;20456;-62
2021/07/20 02:23:36;;;;;;;20.90;18.00;;;18.40;99.90;;;;;;4954739;28;20445;-62
2021/07/20 02:26:04;;;;;;;18.17;15.80;;;18.40;99.90;;;;;;4956109;28;20568;-63
2021/07/20 02:28:30;;;;;;;23.70;19.47;;;18.40;99.90;;;;;;4956066;28;20417;-62
2021/07/20 02:30:57;;;;;;;20.43;16.97;;;18.40;99.90;;;;;;4955864;28;20827;-62
2021/07/20 02:33:23;;;;;;;19.67;17.43;;;18.50;99.90;;;;;;4955852;28;20779;-62
2021/07/20 02:35:50;;;;;;;19.57;17.47;;;18.50;99.90;;;;;;4955603;28;20409;-62
2021/07/20 02:38:20;;;;;;;18.37;16.43;;;18.30;99.90;;;;;;4953539;28;20166;-62
2021/07/20 02:40:49;;;;;;;21.80;17.97;;;18.30;99.90;;;;;;4952591;28;20410;-63
2021/07/20 02:43:18;;;;;;;18.67;16.60;;;18.40;99.90;;;;;;4936098;29;20435;-63
2021/07/20 02:45:44;;;;;;;20.53;18.43;;;18.30;99.90;;;;;;4936704;29;20395;-62
2021/07/20 02:48:10;;;;;;;22.37;18.50;;;18.30;99.90;;;;;;4936294;29;20449;-62
2021/07/20 02:50:36;;;;;;;19.60;17.40;;;18.40;99.90;;;;;;4944310;29;20481;-63
2021/07/20 02:53:04;;;;;;;23.00;17.57;;;18.30;99.90;;;;;;4955399;29;20828;-62
2021/07/20 02:55:31;;;;;;;19.27;17.13;;;18.20;99.90;;;;;;4955309;28;20189;-61
2021/07/20 02:58:00;;;;;;;17.87;16.00;;;18.20;99.90;;;;;;4955313;28;20493;-63
2021/07/20 03:00:26;;;;;;;21.07;17.77;;;18.20;99.90;;;;;;4955288;28;20469;-62
2021/07/20 03:02:54;;;;;;;18.80;16.80;;;18.20;99.90;;;;;;4927726;28;20427;-62
2021/07/20 03:05:20;;;;;;;18.93;17.03;;;18.00;99.90;;;;;;4935573;29;20463;-62
2021/07/20 03:07:54;;;;;;;21.13;17.10;;;17.90;99.90;;;;;;4936037;29;20438;-62
2021/07/20 03:10:21;;;;;;;19.90;17.80;;;18.00;99.90;;;;;;4950578;29;20479;-62
2021/07/20 03:12:48;;;;;;;18.70;16.70;;;18.00;99.90;;;;;;4954569;28;20448;-63
2021/07/20 03:15:15;;;;;;;22.40;17.57;;;17.90;99.90;;;;;;4955109;28;20425;-63
2021/07/20 03:17:41;;;;;;;18.87;16.87;;;17.70;99.90;;;;;;4953539;28;20922;-62
2021/07/20 03:20:11;;;;;;;21.87;17.20;;;17.90;99.90;;;;;;4955012;28;20397;-63
2021/07/20 03:22:39;;;;;;;20.73;17.23;;;18.00;99.90;;;;;;4955051;28;20773;-63
2021/07/20 03:25:06;;;;;;;18.57;16.47;;;17.90;99.90;;;;;;4955236;28;20568;-63
2021/07/20 03:27:34;;;;;;;18.10;15.77;;;17.80;99.90;;;;;;4955205;28;20448;-63
2021/07/20 03:30:03;;;;;;;18.20;16.30;;;17.70;99.90;;;;;;4955106;28;20748;-63
2021/07/20 03:32:29;;;;;;;23.97;17.80;;;17.70;99.90;;;;;;4954752;28;20417;-62
2021/07/20 03:34:56;;;;;;;20.47;17.00;;;17.70;99.90;;;;;;4954821;28;20430;-63
2021/07/20 03:37:23;;;;;;;20.53;16.97;;;17.70;99.90;;;;;;4955146;28;20417;-62
2021/07/20 03:39:53;;;;;;;19.80;16.63;;;17.70;99.90;;;;;;4955132;28;20409;-62
2021/07/20 03:42:21;;;;;;;21.20;17.53;;;17.70;99.90;;;;;;4955090;28;20446;-62
2021/07/20 03:44:46;;;;;;;19.90;16.00;;;17.70;99.90;;;;;;4954739;28;20504;-63
2021/07/20 03:47:14;;;;;;;22.53;17.20;;;17.80;99.90;;;;;;4954144;29;20885;-63
2021/07/20 03:49:42;;;;;;;19.50;16.30;;;17.80;99.90;;;;;;4955045;28;20189;-62
2021/07/20 03:52:10;;;;;;;18.50;16.43;;;17.70;99.90;;;;;;4955060;28;20829;-63
2021/07/20 03:54:37;;;;;;;21.93;17.30;;;17.50;99.90;;;;;;4956397;28;20525;-62
2021/07/20 03:57:04;;;;;;;21.53;16.93;;;17.40;99.90;;;;;;4954763;28;20981;-61
2021/07/20 03:59:33;;;;;;;20.30;17.00;;;17.30;99.90;;;;;;4953315;28;20417;-62
2021/07/20 04:02:01;;;;;;;17.97;15.80;;;17.20;99.90;;;;;;4954363;28;20829;-63
2021/07/20 04:04:31;;;;;;;18.47;15.93;;;17.30;99.90;;;;;;4954837;28;20445;-62
2021/07/20 04:06:58;;;;;;;19.50;17.50;;;17.50;99.90;;;;;;4954696;28;20472;-63
2021/07/20 04:09:24;;;;;;;17.10;15.40;;;17.50;99.90;;;;;;4954514;28;20398;-62
2021/07/20 04:11:51;;;;;;;19.83;16.70;;;17.30;99.90;;;;;;4954136;28;20449;-63
2021/07/20 04:14:18;;;;;;;20.97;17.07;;;17.30;99.90;;;;;;4954570;28;20429;-61
2021/07/20 04:16:44;;;;;;;18.40;16.40;;;17.30;99.90;;;;;;4954606;28;20413;-62
2021/07/20 04:19:14;;;;;;;21.13;15.40;;;17.30;99.90;;;;;;4954865;28;20413;-61
2021/07/20 04:21:39;;;;;;;22.20;16.87;;;17.50;99.90;;;;;;4954699;28;20451;-62
2021/07/20 04:24:05;;;;;;;18.47;16.27;;;17.60;99.90;;;;;;4956359;28;20532;-63
2021/07/20 04:26:31;;;;;;;17.47;15.53;;;17.50;99.90;;;;;;4957805;29;20178;-61
2021/07/20 04:28:57;;;;;;;18.80;16.80;;;17.40;99.90;;;;;;4957863;28;20186;-61
2021/07/20 04:31:25;;;;;;;17.40;15.50;;;17.30;99.90;;;;;;4957893;29;20599;-61
2021/07/20 04:33:51;;;;;;;21.60;16.43;;;17.50;99.90;;;;;;4941401;28;20284;-62
2021/07/20 04:36:19;;;;;;;19.63;15.80;;;17.60;99.90;;;;;;4938960;29;20435;-61
2021/07/20 04:38:45;;;;;;;22.40;17.70;;;17.70;99.90;;;;;;4939094;29;20505;-63
2021/07/20 04:41:19;;;;;;;17.37;15.43;;;17.70;99.90;;;;;;4938411;29;20450;-61
2021/07/20 04:43:46;;;;;;;17.50;15.50;;;17.70;99.90;;;;;;4938782;29;20659;-61
2021/07/20 04:46:13;;;;;;;19.07;15.50;;;17.70;99.90;;;;;;4938987;29;20919;-61
2021/07/20 04:48:40;;;;;;;19.70;16.50;;;17.80;99.90;;;;;;4938316;29;20418;-61
2021/07/20 04:51:06;;;;;;;22.83;16.83;;;17.80;99.90;;;;;;4938187;29;20891;-60
2021/07/20 04:53:34;;;;;;;19.17;14.83;;;17.90;99.90;;;;;;4938356;29;20434;-62
2021/07/20 04:56:00;;;;;;;16.40;13.87;;;18.10;99.90;;;;;;4938445;29;20408;-67
2021/07/20 04:58:26;;;;;;;16.60;14.90;;;18.20;99.90;;;;;;4945000;29;20421;-61
2021/07/20 05:00:53;;;;;;;19.20;13.70;;;18.30;99.90;;;;;;4957480;29;20402;-62
2021/07/20 05:03:22;;;;;;;16.83;14.87;;;18.40;99.90;;;;;;4956922;28;20170;-62
2021/07/20 05:05:50;;;;;;;18.27;15.53;;;18.50;99.90;;;;;;4957481;28;20414;-63
2021/07/20 05:08:18;;;;;;;17.57;15.07;;;18.50;99.90;;;;;;4957258;28;20444;-63
2021/07/20 05:10:48;;;;;;;18.07;13.63;;;18.50;99.90;;;;;;4956999;28;20486;-63
2021/07/20 05:13:18;;;;;;;17.17;14.50;;;18.60;99.90;;;;;;4957216;28;20810;-63
2021/07/20 05:15:59;;;;;;;17.73;14.00;;;18.50;99.90;;;;;;4957382;28;20413;-62
2021/07/20 05:18:25;;;;;;;19.03;14.80;;;18.60;99.90;;;;;;4956815;28;20393;-62
2021/07/20 05:20:55;;;;;;;18.37;14.47;;;18.60;99.90;;;;;;4956993;28;20432;-62
2021/07/20 05:23:21;;;;;;;15.67;13.63;;;18.70;99.90;;;;;;4957233;28;20412;-62
2021/07/20 05:25:55;;;;;;;16.37;13.50;;;18.80;99.90;;;;;;4957206;28;20472;-61
2021/07/20 05:28:24;;;;;;;15.63;13.80;;;18.90;99.90;;;;;;4956776;28;20413;-61
2021/07/20 05:30:53;;;;;;;18.40;14.53;;;18.90;99.90;;;;;;4956985;28;20548;-62
2021/07/20 05:33:19;;;;;;;16.70;13.23;;;19.00;99.90;;;;;;4956108;28;20922;-62
2021/07/20 05:35:49;;;;;;;18.27;15.20;;;19.10;99.90;;;;;;4956420;28;20429;-62
2021/07/20 05:38:14;;;;;;;16.60;13.43;;;19.20;99.90;;;;;;4956953;28;20269;-61
2021/07/20 05:40:40;;;;;;;14.27;12.87;;;19.30;99.90;;;;;;4956578;29;20496;-62
2021/07/20 05:43:06;;;;;;;17.90;13.33;;;19.40;99.90;;;;;;4956385;29;20409;-62
2021/07/20 05:45:34;;;;;;;18.00;13.80;;;19.50;99.90;;;;;;4956420;29;20213;-62
2021/07/20 05:48:01;;;;;;;15.17;12.57;;;19.30;99.90;;;;;;4956011;28;20181;-61
2021/07/20 05:50:27;;;;;;;16.63;14.13;;;19.30;99.90;;;;;;4956070;28;20492;-63
2021/07/20 05:52:56;;;;;;;14.47;12.90;;;19.40;99.90;;;;;;4956254;29;20845;-63
2021/07/20 05:55:23;;;;;;;18.77;15.70;;;19.60;99.90;;;;;;4933452;28;20195;-61
2021/07/20 05:57:50;;;;;;;17.63;15.60;;;19.70;99.90;;;;;;4934353;29;20411;-62
2021/07/20 06:00:22;;;;;;;17.10;14.03;;;19.60;99.90;;;;;;4936901;29;20490;-62
2021/07/20 06:02:49;;;;;;;16.93;14.30;;;19.40;99.90;;;;;;4935111;29;20881;-62
2021/07/20 06:05:15;;;;;;;18.30;14.80;;;19.40;99.90;;;;;;4936909;29;20426;-62
2021/07/20 06:07:43;;;;;;;16.70;14.23;;;19.40;99.90;;;;;;4937090;29;20440;-62
2021/07/20 06:10:10;;;;;;;17.53;13.83;;;19.40;99.90;;;;;;4935883;29;20497;-63
2021/07/20 06:12:36;;;;;;;16.33;14.63;;;19.20;99.90;;;;;;4924030;29;20425;-63
2021/07/20 06:15:04;;;;;;;18.23;14.20;;;19.20;99.90;;;;;;4936854;29;20521;-62
2021/07/20 06:17:30;;;;;;;16.73;13.60;;;19.30;99.90;;;;;;4936596;29;20762;-62
2021/07/20 06:19:55;;;;;;;15.80;12.77;;;19.60;99.90;;;;;;4936264;29;20410;-62
2021/07/20 06:22:27;;;;;;;15.53;13.27;;;19.80;99.90;;;;;;4936945;29;20219;-62
2021/07/20 06:24:53;;;;;;;15.03;13.40;;;19.80;99.90;;;;;;4936691;29;20560;-62
2021/07/20 06:27:21;;;;;;;18.40;14.40;;;19.80;99.90;;;;;;4936590;29;20403;-62
2021/07/20 06:29:53;;;;;;;15.50;13.47;;;20.00;99.90;;;;;;4936431;29;20774;-62
2021/07/20 06:32:21;;;;;;;16.87;13.70;;;20.10;99.90;;;;;;4936290;29;20449;-62
2021/07/20 06:34:47;;;;;;;19.00;14.90;;;19.90;99.90;;;;;;4935853;29;20457;-62
2021/07/20 06:37:15;;;;;;;15.67;12.40;;;19.90;99.90;;;;;;4936255;29;20747;-62
2021/07/20 06:39:41;;;;;;;17.10;14.37;;;20.00;99.90;;;;;;4936356;29;20410;-62
2021/07/20 06:42:07;;;;;;;17.67;13.90;;;20.10;99.90;;;;;;4936162;29;20418;-61
2021/07/20 06:44:36;;;;;;;19.70;13.87;;;20.00;99.90;;;;;;4935993;29;20454;-60
2021/07/20 06:47:03;;;;;;;15.63;13.40;;;19.80;99.90;;;;;;4935172;29;20482;-62
2021/07/20 06:49:29;;;;;;;17.07;15.27;;;20.10;99.90;;;;;;4935943;29;20414;-62
2021/07/20 06:51:55;;;;;;;16.23;14.43;;;20.30;99.90;;;;;;4951617;29;20460;-62
2021/07/20 06:54:21;;;;;;;19.03;13.40;;;20.20;99.90;;;;;;4955103;28;20429;-62
2021/07/20 06:56:57;;;;;;;14.50;12.07;;;20.20;99.90;;;;;;4955296;29;20412;-62
2021/07/20 06:59:24;;;;;;;15.67;13.47;;;20.30;99.90;;;;;;4954409;29;20533;-62
2021/07/20 07:01:50;;;;;;;17.17;14.67;;;20.50;99.90;;;;;;4955571;28;20414;-62
2021/07/20 07:04:27;;;;;;;18.40;13.17;;;20.60;99.90;;;;;;4955074;28;20775;-62
2021/07/20 07:06:56;;;;;;;20.07;14.13;;;20.60;99.90;;;;;;4955133;28;20398;-62
2021/07/20 07:09:29;;;;;;;22.33;13.47;;;20.40;99.90;;;;;;4953843;28;20788;-62
2021/07/20 07:11:56;;;;;;;16.93;13.37;;;20.50;99.90;;;;;;4955056;28;20437;-62
2021/07/20 07:14:23;;;;;;;18.20;14.20;;;20.40;99.90;;;;;;4955197;28;20425;-62
2021/07/20 07:16:52;;;;;;;16.03;13.07;;;20.40;99.90;;;;;;4955314;29;20488;-61
2021/07/20 07:19:20;;;;;;;15.80;13.10;;;20.60;99.90;;;;;;4954468;28;20405;-62
2021/07/20 07:21:48;;;;;;;16.80;13.10;;;20.90;99.90;;;;;;4954917;28;20497;-61
2021/07/20 07:24:15;;;;;;;13.10;11.70;;;20.90;99.90;;;;;;4953580;28;20442;-62
2021/07/20 07:26:43;;;;;;;19.33;12.90;;;20.80;99.90;;;;;;4955263;28;20781;-63
2021/07/20 07:29:10;;;;;;;17.90;12.97;;;21.00;99.90;;;;;;4955510;28;20445;-61
2021/07/20 07:31:37;;;;;;;13.50;12.20;;;21.00;99.90;;;;;;4936351;28;20451;-62
2021/07/20 07:34:03;;;;;;;15.40;12.17;;;20.90;99.90;;;;;;4935134;29;20430;-63
2021/07/20 07:36:29;;;;;;;15.67;13.20;;;21.10;99.90;;;;;;4934526;29;20433;-62
2021/07/20 07:38:55;;;;;;;19.20;13.23;;;21.30;99.90;;;;;;4935872;29;20238;-62
2021/07/20 07:41:25;;;;;;;14.50;12.03;;;21.30;99.90;;;;;;4935750;29;20408;-62
2021/07/20 07:43:53;;;;;;;12.97;11.53;;;21.20;99.90;;;;;;4935584;29;20442;-62
2021/07/20 07:46:20;;;;;;;15.73;13.00;;;21.20;99.90;;;;;;4935532;29;20410;-62
2021/07/20 07:48:46;;;;;;;12.53;11.10;;;21.20;99.90;;;;;;4935117;29;20414;-63
2021/07/20 07:51:12;;;;;;;16.20;13.37;;;21.50;99.90;;;;;;4935648;29;20811;-62
2021/07/20 07:53:43;;;;;;;14.23;12.00;;;21.40;99.90;;;;;;4935737;29;20198;-62
2021/07/20 07:56:10;;;;;;;16.47;12.83;;;21.30;99.90;;;;;;4936107;29;20434;-61
2021/07/20 07:58:37;;;;;;;16.20;12.63;;;21.40;99.90;;;;;;4936924;29;20402;-63
2021/07/20 08:01:06;;;;;;;14.40;11.90;;;21.30;99.90;;;;;;4939339;29;20781;-62
2021/07/20 08:03:36;;;;;;;14.73;11.90;;;21.20;99.90;;;;;;4940918;29;20461;-62
2021/07/20 08:06:04;;;;;;;17.80;12.00;;;21.50;99.90;;;;;;4958579;28;20408;-62
2021/07/20 08:08:33;;;;;;;16.07;11.60;;;21.60;99.90;;;;;;4958281;28;20781;-62
2021/07/20 08:11:00;;;;;;;14.30;10.07;;;21.60;99.90;;;;;;4958192;28;20802;-63
2021/07/20 08:13:27;;;;;;;12.80;11.33;;;21.50;99.90;;;;;;4958228;28;20405;-62
2021/07/20 08:15:54;;;;;;;14.67;11.20;;;21.60;99.90;;;;;;4958446;28;20422;-62
2021/07/20 08:18:23;;;;;;;13.23;11.20;;;21.70;99.90;;;;;;4956423;28;20432;-63
2021/07/20 08:21:01;;;;;;;16.83;11.53;;;21.70;99.90;;;;;;4957777;28;20414;-63
2021/07/20 08:23:26;;;;;;;12.40;10.90;;;21.70;99.90;;;;;;4958318;28;20994;-62
2021/07/20 08:25:53;;;;;;;19.53;12.80;;;21.60;99.90;;;;;;4958026;29;20476;-61
2021/07/20 08:28:43;;;;;;;12.10;10.67;;;21.80;99.90;;;;;;4958124;28;20173;-63
2021/07/20 08:31:12;;;;;;;14.67;12.23;;;22.00;99.90;;;;;;4958007;28;20441;-62
2021/07/20 08:33:39;;;;;;;12.87;11.13;;;21.90;99.90;;;;;;4957628;28;20794;-62
2021/07/20 08:36:09;;;;;;;12.57;11.37;;;22.10;99.90;;;;;;4959036;28;20730;-62
2021/07/20 08:38:35;;;;;;;19.60;11.13;;;22.10;99.90;;;;;;4957639;28;20393;-62
2021/07/20 08:41:04;;;;;;;10.87;9.77;;;22.20;99.90;;;;;;4957794;29;20453;-63
2021/07/20 08:43:54;;;;;;;12.70;10.17;;;22.20;99.90;;;;;;4947156;29;20496;-63
2021/07/20 08:46:19;;;;;;;12.40;10.63;;;22.30;99.90;;;;;;4938983;29;20395;-62
2021/07/20 08:49:12;;;;;;;12.83;10.27;;;22.40;99.90;;;;;;4952202;29;20945;-63
2021/07/20 08:51:47;;;;;;;11.87;9.97;;;22.30;99.90;;;;;;4955760;29;20202;-63
2021/07/20 08:54:21;;;;;;;13.43;12.13;;;22.50;99.90;;;;;;4957746;28;20440;-62
2021/07/20 08:56:47;;;;;;;13.17;10.57;;;22.60;99.90;;;;;;4957884;28;20393;-62
2021/07/20 09:00:14;;;;;;;13.43;10.70;;;22.90;99.90;;;;;;4956303;28;20863;-62
2021/07/20 09:02:58;;;;;;;12.30;11.00;;;23.10;99.90;;;;;;4843276;29;20491;-62
2021/07/20 09:05:34;;;;;;;12.00;10.73;;;23.30;99.90;;;;;;4924757;29;20451;-63
2021/07/20 09:08:21;;;;;;;11.50;10.10;;;23.20;99.90;;;;;;4955996;29;20425;-62
2021/07/20 09:10:52;;;;;;;11.57;9.80;;;23.30;99.90;;;;;;4956239;28;21002;-62
2021/07/20 09:13:22;;;;;;;14.77;12.00;;;23.20;99.90;;;;;;4955752;28;20525;-62
2021/07/20 09:15:53;;;;;;;16.67;11.47;;;23.30;99.90;;;;;;4957102;28;20645;-62
2021/07/20 09:18:27;;;;;;;12.80;10.70;;;23.60;99.90;;;;;;4957333;28;20753;-62
2021/07/20 09:20:59;;;;;;;17.53;11.80;;;23.40;99.90;;;;;;4957299;28;20394;-61
2021/07/20 09:23:33;;;;;;;12.43;11.17;;;23.40;99.90;;;;;;4957319;28;20398;-62
2021/07/20 09:26:06;;;;;;;13.57;11.43;;;23.70;99.90;;;;;;4957086;28;20401;-62
2021/07/20 09:28:49;;;;;;;12.10;10.80;;;23.90;99.90;;;;;;4956720;29;20413;-61
2021/07/20 09:31:45;;;;;;;11.70;10.50;;;23.70;99.90;;;;;;4955465;28;20802;-62
2021/07/20 09:34:32;;;;;;;14.47;11.80;;;23.90;99.90;;;;;;4956913;28;20578;-62
2021/07/20 09:37:06;;;;;;;12.90;11.37;;;23.60;99.90;;;;;;4957526;29;20859;-61
2021/07/20 09:39:46;;;;;;;15.80;11.90;;;23.50;99.90;;;;;;4956668;28;20405;-62
2021/07/20 09:42:11;;;;;;;16.40;11.33;;;23.50;99.90;;;;;;4956851;28;20541;-62
2021/07/20 09:44:43;;;;;;;15.40;12.23;;;23.40;99.90;;;;;;4954588;28;20556;-62
2021/07/20 09:47:26;;;;;;;13.77;12.37;;;23.60;99.90;;;;;;4956974;28;20193;-62
2021/07/20 09:49:57;;;;;;;13.03;11.63;;;23.60;99.90;;;;;;4956593;28;20488;-62
2021/07/20 09:52:38;;;;;;;17.10;12.40;;;23.80;99.90;;;;;;4954789;29;20791;-62
2021/07/20 09:55:31;;;;;;;13.00;11.23;;;24.00;99.90;;;;;;4957660;28;20430;-62
2021/07/20 09:58:02;;;;;;;13.53;12.13;;;23.90;99.90;;;;;;4956654;29;20413;-62
2021/07/20 10:01:00;;;;;;;13.53;11.93;;;24.00;99.90;;;;;;4956481;28;20465;-62
2021/07/20 10:03:49;;;;;;;14.73;11.93;;;24.10;99.90;;;;;;4950641;28;20432;-62
2021/07/20 10:06:38;;;;;;;14.23;12.37;;;24.30;99.90;;;;;;4956493;29;20864;-62
2021/07/20 10:09:11;;;;;;;13.97;12.33;;;24.20;99.90;;;;;;4956431;28;20445;-62
2021/07/20 10:11:47;;;;;;;16.00;13.10;;;24.20;99.90;;;;;;4954450;28;20452;-62
2021/07/20 10:14:30;;;;;;;15.53;13.17;;;24.40;99.90;;;;;;4956135;28;20854;-62
2021/07/20 10:17:35;;;;;;;16.20;13.10;;;24.70;99.90;;;;;;4954224;29;20428;-62
2021/07/20 10:20:18;;;;;;;22.00;12.57;;;24.70;99.90;;;;;;4955952;28;20902;-62
2021/07/20 10:23:17;;;;;;;16.43;12.30;;;25.20;99.90;;;;;;4954429;28;20421;-62
2021/07/20 10:26:09;;;;;;;13.40;11.40;;;25.20;99.80;;;;;;4956113;28;20393;-62
2021/07/20 10:29:12;;;;;;;15.93;13.20;;;24.70;99.90;;;;;;4955512;28;20510;-62
2021/07/20 10:31:48;;;;;;;14.80;13.30;;;24.60;99.90;;;;;;4942349;29;20455;-62
2021/07/20 10:34:18;;;;;;;12.50;11.30;;;24.80;99.90;;;;;;4955028;28;20441;-63
2021/07/20 10:37:18;;;;;;;17.20;13.70;;;25.00;99.90;;;;;;4955102;28;20418;-62
2021/07/20 10:39:59;;;;;;;14.33;12.97;;;25.00;99.50;;;;;;4940906;29;20791;-62
2021/07/20 10:42:42;;;;;;;13.87;12.37;;;25.10;99.90;;;;;;4955827;28;20402;-62
2021/07/20 10:45:11;;;;;;;14.33;12.93;;;25.30;99.90;;;;;;4955417;28;20456;-62
2021/07/20 10:47:57;;;;;;;14.93;13.33;;;25.30;98.80;;;;;;4955519;28;20417;-63
2021/07/20 10:50:34;;;;;;;14.20;12.70;;;25.60;98.70;;;;;;4953733;28;20431;-63
2021/07/20 10:53:06;;;;;;;15.77;12.43;;;25.50;98.70;;;;;;4945796;28;20402;-63
2021/07/20 10:55:53;;;;;;;13.40;12.00;;;25.30;98.50;;;;;;4935988;29;20426;-63
2021/07/20 10:58:55;;;;;;;15.73;13.53;;;25.60;98.70;;;;;;4925413;29;20944;-63
2021/07/20 11:01:31;;;;;;;14.03;12.63;;;25.80;98.00;;;;;;4917511;29;20395;-63
2021/07/20 11:03:56;;;;;;;15.63;13.60;;;26.00;97.10;;;;;;4917187;29;20921;-63
2021/07/20 11:06:23;;;;;;;13.33;11.93;;;26.40;98.00;;;;;;4934209;29;20429;-63
2021/07/20 11:08:53;;;;;;;14.73;13.00;;;26.70;96.90;;;;;;4955382;28;20190;-63
2021/07/20 11:11:24;;;;;;;13.47;12.17;;;26.80;96.80;;;;;;4954982;28;20803;-63
2021/07/20 11:13:54;;;;;;;15.50;13.87;;;26.70;96.30;;;;;;4947130;28;20504;-63
2021/07/20 11:16:21;;;;;;;12.73;11.43;;;26.10;96.30;;;;;;4955220;28;20410;-63
2021/07/20 11:18:49;;;;;;;12.87;11.57;;;26.00;97.40;;;;;;4955133;28;20906;-63
2021/07/20 11:21:21;;;;;;;12.90;11.63;;;26.30;97.70;;;;;;4953960;28;20433;-61
2021/07/20 11:23:50;;;;;;;13.70;12.30;;;26.00;96.90;;;;;;4955247;28;20429;-62
2021/07/20 11:26:17;;;;;;;15.77;14.23;;;26.00;96.40;;;;;;4955060;28;20418;-62
2021/07/20 11:28:44;;;;;;;14.50;12.27;;;26.00;96.70;;;;;;4955301;28;20406;-62
2021/07/20 11:31:17;;;;;;;17.17;13.10;;;26.40;96.70;;;;;;4950926;28;20438;-62
2021/07/20 11:33:55;;;;;;;14.80;13.00;;;27.10;95.50;;;;;;4936829;29;20427;-62
2021/07/20 11:36:24;;;;;;;13.37;11.97;;;28.30;95.40;;;;;;4939909;29;20390;-62
2021/07/20 11:38:52;;;;;;;14.93;13.47;;;27.60;94.70;;;;;;4939897;29;20417;-61
2021/07/20 11:41:41;;;;;;;14.30;13.00;;;26.80;95.20;;;;;;4939614;29;20450;-63
2021/07/20 11:44:40;;;;;;;14.27;11.93;;;26.70;95.10;;;;;;4939476;29;20577;-63
2021/07/20 11:47:12;;;;;;;14.87;13.37;;;27.00;94.30;;;;;;4939112;29;20485;-63
2021/07/20 11:50:00;;;;;;;15.67;12.37;;;27.10;94.10;;;;;;4942670;29;20812;-63
2021/07/20 11:52:48;;;;;;;14.43;12.77;;;28.40;92.50;;;;;;4957151;29;20502;-62
2021/07/20 11:55:30;;;;;;;14.80;11.90;;;30.20;90.30;;;;;;4958908;28;20428;-62
2021/07/20 11:58:15;;;;;;;14.00;12.60;;;31.10;86.40;;;;;;4929421;29;20407;-62
2021/07/20 12:01:06;;;;;;;15.97;12.67;;;29.60;89.80;;;;;;4943821;29;20428;-62
2021/07/20 12:03:50;;;;;;;14.43;11.53;;;29.40;90.10;;;;;;4957340;28;20436;-62
2021/07/20 12:06:28;;;;;;;15.20;13.60;;;30.70;86.50;;;;;;4959699;29;20409;-62
2021/07/20 12:09:08;;;;;;;16.07;13.33;;;30.10;86.30;;;;;;4957430;29;20930;-62
2021/07/20 12:11:38;;;;;;;15.10;12.90;;;29.30;87.20;;;;;;4958790;28;20864;-62
2021/07/20 12:14:06;;;;;;;14.07;11.70;;;28.30;88.10;;;;;;4958840;28;20422;-62
2021/07/20 12:16:43;;;;;;;13.73;12.30;;;27.50;90.10;;;;;;4956828;28;20763;-62
2021/07/20 12:19:09;;;;;;;16.17;14.10;;;27.20;89.70;;;;;;4958484;28;20794;-62
2021/07/20 12:21:36;;;;;;;13.80;12.40;;;27.50;90.60;;;;;;4958435;28;20409;-62
2021/07/20 12:24:09;;;;;;;14.60;13.13;;;28.20;87.90;;;;;;4958156;28;20417;-62
2021/07/20 12:26:37;;;;;;;14.10;12.00;;;28.20;88.00;;;;;;4957226;28;20425;-62
2021/07/20 12:29:07;;;;;;;13.53;12.10;;;27.80;87.20;;;;;;4958333;28;20480;-62
2021/07/20 12:31:33;;;;;;;15.67;12.50;;;28.20;85.70;;;;;;4958179;28;20440;-62
2021/07/20 12:33:59;;;;;;;14.63;11.70;;;28.40;86.90;;;;;;4957723;28;20926;-63
2021/07/20 12:36:25;;;;;;;14.17;12.77;;;29.50;89.00;;;;;;4956478;28;20516;-62
2021/07/20 12:39:18;;;;;;;14.20;12.80;;;30.60;80.60;;;;;;4957479;28;20253;-62
2021/07/20 12:41:50;;;;;;;13.30;12.00;;;31.80;78.10;;;;;;4957811;28;20405;-63
2021/07/20 12:44:17;;;;;;;13.03;11.60;;;32.10;77.10;;;;;;4955605;28;20536;-63
2021/07/20 12:46:44;;;;;;;11.43;10.33;;;32.80;75.20;;;;;;4956578;28;20437;-60
2021/07/20 12:49:11;;;;;;;14.27;11.73;;;33.10;69.60;;;;;;4957498;28;20420;-62
2021/07/20 12:51:49;;;;;;;13.07;11.87;;;33.60;68.00;;;;;;4955656;28;20536;-62